EST,Max TemperatureF,Mean TemperatureF,Min TemperatureF,Max Dew PointF,MeanDew PointF,Min DewpointF,Max Humidity, Mean Humidity, Min Humidity, Max Sea Level PressureIn, Mean Sea Level PressureIn, Min Sea Level PressureIn, Max VisibilityMiles, Mean VisibilityMiles, Min VisibilityMiles, Max Wind SpeedMPH, Mean Wind SpeedMPH, Max Gust SpeedMPH,PrecipitationIn, CloudCover, Events, WindDirDegrees
2012-11-1,55,48,42,43,41,39,93,74,54,29.80,29.74,29.70,10,10,10,13,6,18,0.00,3,,250
2012-11-2,57,47,37,39,37,32,100,71,38,29.96,29.84,29.78,10,10,10,18,6,28,0.00,1,Rain,270
2012-11-3,53,44,35,39,36,34,100,74,50,30.11,30.05,29.96,10,10,10,16,4,21,0.00,2,,310
2012-11-4,50,44,39,45,41,39,100,87,66,30.12,30.06,30.00,10,10,10,7,1,,0.01,6,Rain,33
2012-11-5,50,42,33,41,36,32,100,80,50,30.15,30.08,30.02,10,10,4,12,3,16,0.00,0,,350
2012-11-6,48,39,30,43,37,30,100,84,71,30.15,30.06,29.88,10,9,4,13,4,20,0.01,3,Rain,357
2012-11-7,46,44,42,45,40,36,100,84,76,29.90,29.85,29.82,10,10,5,14,8,21,0.03,7,Rain,333
2012-11-8,57,47,37,37,29,12,87,58,17,30.08,29.96,29.89,10,10,10,16,6,25,0.00,3,,300
2012-11-9,59,44,30,43,35,27,100,71,42,30.27,30.20,30.08,10,10,10,9,3,17,0.00,0,,324
2012-11-10,69,53,37,46,40,36,93,53,31,30.36,30.31,30.26,10,10,10,9,3,,0.00,0,,182
2012-11-11,71,58,46,48,45,41,100,65,33,30.51,30.47,30.44,10,10,10,8,3,,0.00,0,,180
2012-11-12,75,60,46,63,57,46,100,85,61,30.47,30.35,30.21,10,8,0,14,3,21,0.00,3,Fog-Rain,155
2012-11-13,66,54,42,63,50,43,100,95,87,30.42,30.32,30.18,10,9,2,13,6,22,0.40,7,Rain,10
2012-11-14,50,44,37,43,37,36,93,80,66,30.48,30.43,30.39,10,10,10,13,6,21,0.00,3,,5
2012-11-15,53,45,37,48,43,36,100,88,76,30.38,30.30,30.25,10,10,7,13,5,,0.21,6,Rain,6
2012-11-16,51,43,35,46,40,34,100,83,62,30.39,30.31,30.25,10,10,10,10,4,,0.00,3,,7
2012-11-17,55,44,33,48,42,34,100,85,67,30.50,30.46,30.38,10,10,10,18,6,24,0.00,3,,11
2012-11-18,57,54,50,50,49,46,94,83,72,30.46,30.42,30.36,10,10,7,22,13,29,0.00,7,,28
2012-11-19,53,52,51,50,48,46,94,87,82,30.35,30.25,30.16,10,9,4,14,10,20,0.00,8,,8
2012-11-20,57,52,44,48,47,45,100,85,72,30.16,30.11,30.07,10,10,5,12,6,16,0.00,5,,18
2012-11-21,57,48,39,46,43,39,100,86,63,30.18,30.13,30.09,10,9,4,16,4,23,0.00,1,,6
2012-11-22,59,48,37,46,43,37,100,85,59,30.22,30.17,30.14,10,10,7,16,5,21,0.00,0,,2
2012-11-23,64,48,33,46,40,32,100,75,37,30.15,29.99,29.82,10,10,7,10,2,,0.00,0,,214
2012-11-24,53,40,28,43,28,21,86,56,37,30.11,29.96,29.81,10,10,10,15,7,22,0.00,0,,318
2012-11-25,48,36,24,28,24,21,93,64,34,30.17,30.09,30.02,10,10,10,14,3,17,0.00,0,,223
2012-11-26,60,45,30,39,31,27,100,63,29,30.23,30.16,30.06,10,10,10,7,2,,0.00,0,,162
2012-11-27,57,46,35,46,42,36,100,83,54,30.23,30.17,30.10,10,9,4,9,4,,0.07,6,Rain,292
2012-11-28,50,40,30,39,33,28,100,79,47,30.39,30.30,30.23,10,9,4,13,5,20,0.01,1,,336
2012-11-29,53,40,26,37,31,27,100,79,41,30.49,30.42,30.38,10,9,5,10,1,,0.00,0,,172
2012-11-30,60,45,30,43,36,28,100,79,45,30.42,30.37,30.31,10,9,5,9,1,,0.00,0,,199